Time;durP1;ratioP1;P1;durP2;ratioP2;P2;SDS_P1;SDS_P2;PMS_P1;PMS_P2;Temp;Humidity;BMP_temperature;BMP_pressure;BME280_temperature;BME280_humidity;BME280_pressure;Samples;Min_cycle;Max_cycle;Signal;HPM_P1;HPM_P2
2021/12/07 00:01:07;;;;;;;18.93;12.97;;;;;;;;;;5071030;28;20564;-58
2021/12/07 00:03:34;;;;;;;17.97;12.50;;;;;;;;;;5071651;28;20477;-58
2021/12/07 00:06:00;;;;;;;19.40;13.43;;;;;;;;;;5071307;28;20460;-58
2021/12/07 00:08:28;;;;;;;20.20;13.47;;;;;;;;;;5073216;28;20488;-57
2021/12/07 00:10:56;;;;;;;17.00;13.07;;;;;;;;;;5075184;28;20436;-57
2021/12/07 00:13:24;;;;;;;19.30;13.87;;;;;;;;;;5075023;28;20438;-57
2021/12/07 00:15:50;;;;;;;19.17;12.57;;;;;;;;;;5074884;28;20437;-57
2021/12/07 00:18:17;;;;;;;17.43;12.93;;;;;;;;;;5074896;28;20509;-57
2021/12/07 00:20:43;;;;;;;20.67;13.57;;;;;;;;;;5074790;28;20537;-57
2021/12/07 00:23:10;;;;;;;20.43;13.93;;;;;;;;;;5074593;28;20469;-56
2021/12/07 00:25:37;;;;;;;20.53;13.30;;;;;;;;;;5074470;28;20950;-56
2021/12/07 00:28:05;;;;;;;18.07;13.57;;;;;;;;;;5074466;28;20485;-57
2021/12/07 00:30:33;;;;;;;20.03;13.27;;;;;;;;;;5074691;28;20442;-58
2021/12/07 00:33:29;;;;;;;18.23;12.67;;;;;;;;;;5074495;28;20962;-58
2021/12/07 00:35:56;;;;;;;21.27;13.43;;;;;;;;;;5074465;28;20437;-58
2021/12/07 00:38:23;;;;;;;20.10;13.13;;;;;;;;;;5074105;28;20442;-58
2021/12/07 00:40:50;;;;;;;17.93;12.70;;;;;;;;;;5074345;28;20540;-59
2021/12/07 00:43:17;;;;;;;19.90;13.10;;;;;;;;;;5073833;28;20434;-59
2021/12/07 00:45:45;;;;;;;18.87;12.80;;;;;;;;;;5074303;28;20466;-58
2021/12/07 00:48:12;;;;;;;18.57;12.83;;;;;;;;;;5071390;28;20477;-59
2021/12/07 00:50:39;;;;;;;19.90;12.57;;;;;;;;;;5072617;28;20454;-60
2021/12/07 00:53:06;;;;;;;19.90;13.73;;;;;;;;;;5073959;28;20438;-60
2021/12/07 00:55:33;;;;;;;20.70;13.73;;;;;;;;;;5074111;28;20445;-60
2021/12/07 00:58:00;;;;;;;18.80;13.63;;;;;;;;;;5074101;28;20445;-59
2021/12/07 01:00:29;;;;;;;19.73;13.87;;;;;;;;;;5073526;28;20476;-59
2021/12/07 01:02:55;;;;;;;19.73;14.07;;;;;;;;;;5073491;28;20810;-59
2021/12/07 01:05:27;;;;;;;22.33;13.63;;;;;;;;;;5073957;28;20507;-59
2021/12/07 01:08:14;;;;;;;20.53;13.27;;;;;;;;;;5074059;28;20474;-59
2021/12/07 01:24:41;;;;;;;19.03;12.63;;;;;;;;;;5074168;28;20429;-59
2021/12/07 01:27:08;;;;;;;19.57;13.83;;;;;;;;;;5073887;28;20470;-58
2021/12/07 01:29:35;;;;;;;21.47;12.97;;;;;;;;;;5074035;28;20436;-56
2021/12/07 01:32:29;;;;;;;20.07;13.20;;;;;;;;;;5073867;28;21001;-57
2021/12/07 01:40:33;;;;;;;19.57;13.67;;;;;;;;;;5073770;28;20437;-58
2021/12/07 01:45:54;;;;;;;20.97;14.00;;;;;;;;;;5073655;28;20434;-58
2021/12/07 02:01:43;;;;;;;19.73;12.40;;;;;;;;;;5073084;28;20464;-58
2021/12/07 02:04:10;;;;;;;17.63;12.93;;;;;;;;;;5073304;28;20454;-58
2021/12/07 02:06:36;;;;;;;19.90;12.43;;;;;;;;;;5073181;28;20223;-58
2021/12/07 02:09:05;;;;;;;20.23;12.63;;;;;;;;;;5073094;28;20964;-58
2021/12/07 02:11:31;;;;;;;19.77;13.17;;;;;;;;;;5073208;28;20801;-58
2021/12/07 02:16:27;;;;;;;19.73;12.97;;;;;;;;;;5073155;28;20924;-57
2021/12/07 02:18:53;;;;;;;17.97;13.33;;;;;;;;;;5073080;28;20237;-58
2021/12/07 02:21:22;;;;;;;17.87;12.17;;;;;;;;;;5072936;28;20457;-58
2021/12/07 02:23:49;;;;;;;17.50;12.80;;;;;;;;;;5072830;28;20477;-57
2021/12/07 02:26:15;;;;;;;16.53;12.43;;;;;;;;;;5072928;28;20794;-59
2021/12/07 02:28:41;;;;;;;19.00;13.00;;;;;;;;;;5072791;28;20485;-58
2021/12/07 02:31:07;;;;;;;18.63;12.87;;;;;;;;;;5072578;28;20441;-58
2021/12/07 02:33:33;;;;;;;16.77;12.10;;;;;;;;;;5072585;28;20199;-59
2021/12/07 02:35:59;;;;;;;17.00;12.17;;;;;;;;;;5072862;28;20510;-58
2021/12/07 02:38:27;;;;;;;17.10;12.00;;;;;;;;;;5072622;28;20438;-59
2021/12/07 02:40:53;;;;;;;15.50;12.10;;;;;;;;;;5072612;28;20816;-58
2021/12/07 02:43:19;;;;;;;19.20;12.07;;;;;;;;;;5072435;28;20858;-58
2021/12/07 02:45:45;;;;;;;18.37;12.33;;;;;;;;;;5072737;28;20438;-59
2021/12/07 02:48:11;;;;;;;16.67;11.83;;;;;;;;;;5072358;28;20584;-59
2021/12/07 02:50:37;;;;;;;18.03;11.77;;;;;;;;;;5072466;28;20203;-58
2021/12/07 02:53:03;;;;;;;18.53;13.00;;;;;;;;;;5072422;28;20207;-59
2021/12/07 02:55:32;;;;;;;17.93;12.20;;;;;;;;;;5072516;28;20434;-59
2021/12/07 02:57:59;;;;;;;17.17;12.50;;;;;;;;;;5072328;28;20965;-58
2021/12/07 03:00:32;;;;;;;17.90;11.70;;;;;;;;;;5071990;28;20477;-58
2021/12/07 03:03:04;;;;;;;17.20;12.20;;;;;;;;;;5072269;28;20496;-59
2021/12/07 03:08:21;;;;;;;16.77;11.80;;;;;;;;;;5072257;28;20477;-59
2021/12/07 03:27:24;;;;;;;16.03;11.17;;;;;;;;;;5071896;28;20476;-59
2021/12/07 03:29:50;;;;;;;18.47;12.27;;;;;;;;;;5071935;28;20446;-59
2021/12/07 03:32:17;;;;;;;15.57;11.47;;;;;;;;;;5071740;28;20775;-58
2021/12/07 03:34:43;;;;;;;15.87;12.07;;;;;;;;;;5072060;28;20582;-58
2021/12/07 03:37:09;;;;;;;17.67;12.50;;;;;;;;;;5071823;28;20442;-60
2021/12/07 03:39:35;;;;;;;17.60;12.10;;;;;;;;;;5071836;28;20924;-59
2021/12/07 03:42:01;;;;;;;18.97;12.20;;;;;;;;;;5070070;28;20461;-57
2021/12/07 03:44:30;;;;;;;18.33;12.30;;;;;;;;;;5075490;28;20503;-58
2021/12/07 03:46:56;;;;;;;17.77;12.27;;;;;;;;;;5075969;28;20483;-57
2021/12/07 03:49:22;;;;;;;17.83;12.60;;;;;;;;;;5075859;28;20495;-58
2021/12/07 03:51:48;;;;;;;20.00;12.77;;;;;;;;;;5075883;28;20520;-58
2021/12/07 03:54:14;;;;;;;18.53;12.37;;;;;;;;;;5075801;28;20465;-58
2021/12/07 03:56:40;;;;;;;20.83;13.67;;;;;;;;;;5075679;28;20286;-57
2021/12/07 03:59:06;;;;;;;19.50;12.20;;;;;;;;;;5075605;28;20660;-58
2021/12/07 04:01:34;;;;;;;18.77;12.30;;;;;;;;;;5075735;28;20513;-57
2021/12/07 04:04:02;;;;;;;19.37;12.77;;;;;;;;;;5075832;28;20206;-57
2021/12/07 04:06:28;;;;;;;21.60;13.40;;;;;;;;;;5075441;28;20484;-57
2021/12/07 04:08:55;;;;;;;18.73;13.43;;;;;;;;;;5075030;28;20526;-57
2021/12/07 04:11:20;;;;;;;19.67;13.10;;;;;;;;;;5075293;28;20481;-57
2021/12/07 04:13:46;;;;;;;18.33;14.17;;;;;;;;;;5075435;28;20457;-58
2021/12/07 04:16:14;;;;;;;17.27;13.07;;;;;;;;;;5075364;28;20685;-58
2021/12/07 04:18:41;;;;;;;19.40;13.37;;;;;;;;;;5075330;28;20196;-57
2021/12/07 04:21:07;;;;;;;19.80;13.70;;;;;;;;;;5075613;28;20449;-59
2021/12/07 04:23:34;;;;;;;21.27;13.87;;;;;;;;;;5075498;28;20445;-57
2021/12/07 04:26:01;;;;;;;21.97;14.87;;;;;;;;;;5075312;28;20430;-57
2021/12/07 04:28:27;;;;;;;23.23;15.00;;;;;;;;;;5074873;28;21007;-56
2021/12/07 04:30:53;;;;;;;24.13;15.30;;;;;;;;;;5075048;28;20583;-58
2021/12/07 04:33:19;;;;;;;21.77;14.23;;;;;;;;;;5074859;28;20553;-57
2021/12/07 04:35:48;;;;;;;24.17;15.77;;;;;;;;;;5074999;28;20229;-58
2021/12/07 04:38:14;;;;;;;21.50;14.53;;;;;;;;;;5074653;28;20446;-59
2021/12/07 04:40:40;;;;;;;22.47;15.70;;;;;;;;;;5074785;28;20425;-59
2021/12/07 04:43:07;;;;;;;20.67;15.00;;;;;;;;;;5074635;28;20448;-59
2021/12/07 04:48:24;;;;;;;24.27;15.83;;;;;;;;;;5074612;28;20550;-57
2021/12/07 04:59:03;;;;;;;25.43;16.23;;;;;;;;;;5074396;28;20429;-57
2021/12/07 05:01:31;;;;;;;24.30;15.97;;;;;;;;;;5074353;28;20512;-58
2021/12/07 05:03:59;;;;;;;24.00;15.80;;;;;;;;;;5074179;28;20837;-58
2021/12/07 05:06:30;;;;;;;28.73;16.37;;;;;;;;;;5073975;28;20465;-58
2021/12/07 05:09:04;;;;;;;27.10;17.23;;;;;;;;;;5074107;28;20508;-58
2021/12/07 05:11:48;;;;;;;24.90;16.97;;;;;;;;;;5074267;28;20434;-58
2021/12/07 05:14:24;;;;;;;24.33;17.03;;;;;;;;;;5073963;28;20458;-58
2021/12/07 05:38:28;;;;;;;25.30;17.27;;;;;;;;;;5073643;28;20495;-57
2021/12/07 05:40:54;;;;;;;22.00;16.37;;;;;;;;;;5073610;28;20487;-58
2021/12/07 05:43:20;;;;;;;26.57;16.63;;;;;;;;;;5073211;28;20457;-57
2021/12/07 05:45:46;;;;;;;24.83;16.57;;;;;;;;;;5073423;28;20777;-58
2021/12/07 05:48:13;;;;;;;22.57;16.70;;;;;;;;;;5073314;28;20477;-58
2021/12/07 05:50:40;;;;;;;24.83;17.00;;;;;;;;;;5073521;28;20491;-57
2021/12/07 05:53:07;;;;;;;23.57;17.27;;;;;;;;;;5073316;28;20460;-57
2021/12/07 05:55:35;;;;;;;25.43;17.63;;;;;;;;;;5073705;28;20452;-56
2021/12/07 05:58:01;;;;;;;27.40;16.97;;;;;;;;;;5073239;28;20798;-58
2021/12/07 06:00:28;;;;;;;26.67;16.93;;;;;;;;;;5073017;28;20560;-57
2021/12/07 06:02:55;;;;;;;27.50;17.37;;;;;;;;;;5073089;28;20199;-58
2021/12/07 06:05:22;;;;;;;23.70;16.70;;;;;;;;;;5072429;28;20481;-58
2021/12/07 06:07:48;;;;;;;25.77;16.63;;;;;;;;;;5073184;28;20565;-57
2021/12/07 06:10:14;;;;;;;26.33;16.80;;;;;;;;;;5073108;28;20422;-57
2021/12/07 06:12:41;;;;;;;25.70;16.93;;;;;;;;;;5072983;28;20970;-58
2021/12/07 06:15:08;;;;;;;26.17;17.77;;;;;;;;;;5072351;28;20509;-57
2021/12/07 06:17:34;;;;;;;25.17;16.87;;;;;;;;;;5072366;28;20521;-56
2021/12/07 06:20:00;;;;;;;22.43;16.40;;;;;;;;;;5072359;28;20513;-57
2021/12/07 06:22:26;;;;;;;28.03;17.10;;;;;;;;;;5071955;28;20816;-58
2021/12/07 06:24:52;;;;;;;29.47;18.23;;;;;;;;;;5072624;28;20426;-57
2021/12/07 06:27:18;;;;;;;25.77;17.70;;;;;;;;;;5072488;28;20238;-57
2021/12/07 06:29:46;;;;;;;29.23;18.93;;;;;;;;;;5072788;28;20434;-58
2021/12/07 06:32:12;;;;;;;27.80;20.07;;;;;;;;;;5072161;28;20808;-58
2021/12/07 06:34:38;;;;;;;27.27;18.27;;;;;;;;;;5072449;28;20519;-56
2021/12/07 06:37:04;;;;;;;25.03;16.90;;;;;;;;;;5072233;28;20438;-57
2021/12/07 06:39:31;;;;;;;30.20;18.10;;;;;;;;;;5072419;28;20517;-58
2021/12/07 06:41:57;;;;;;;25.93;18.27;;;;;;;;;;5072449;28;20493;-58
2021/12/07 06:44:23;;;;;;;30.37;18.50;;;;;;;;;;5072121;28;20440;-58
2021/12/07 06:46:51;;;;;;;24.60;17.17;;;;;;;;;;5072266;28;20438;-58
2021/12/07 06:49:17;;;;;;;26.17;17.27;;;;;;;;;;5072267;28;20298;-58
2021/12/07 06:51:43;;;;;;;23.43;16.97;;;;;;;;;;5072149;28;20483;-58
2021/12/07 06:54:09;;;;;;;27.13;17.93;;;;;;;;;;5072198;28;20480;-58
2021/12/07 06:56:35;;;;;;;26.77;18.20;;;;;;;;;;5072150;28;20429;-58
2021/12/07 06:59:01;;;;;;;27.93;18.07;;;;;;;;;;5072074;28;20503;-58
2021/12/07 07:01:27;;;;;;;25.93;16.93;;;;;;;;;;5071591;28;20987;-58
2021/12/07 07:03:54;;;;;;;27.70;18.17;;;;;;;;;;5071776;28;20396;-58
2021/12/07 07:06:20;;;;;;;27.13;18.40;;;;;;;;;;5071670;28;20517;-59
2021/12/07 07:08:46;;;;;;;26.53;17.83;;;;;;;;;;5071897;28;20477;-58
2021/12/07 07:11:12;;;;;;;25.27;16.63;;;;;;;;;;5071592;28;20463;-58
2021/12/07 07:13:38;;;;;;;25.27;17.30;;;;;;;;;;5071750;28;20238;-58
2021/12/07 07:16:05;;;;;;;25.27;17.23;;;;;;;;;;5071108;28;20440;-58
2021/12/07 07:18:34;;;;;;;24.03;17.27;;;;;;;;;;5070512;28;20853;-58
2021/12/07 07:21:01;;;;;;;29.93;18.60;;;;;;;;;;5071839;28;20479;-58
2021/12/07 07:23:27;;;;;;;24.37;17.40;;;;;;;;;;5071557;28;20454;-58
2021/12/07 07:25:55;;;;;;;26.33;18.13;;;;;;;;;;5071571;28;20487;-58
2021/12/07 07:28:21;;;;;;;27.30;17.27;;;;;;;;;;5071353;28;20968;-58
2021/12/07 07:30:47;;;;;;;25.93;17.90;;;;;;;;;;5071584;28;20583;-58
2021/12/07 07:33:13;;;;;;;24.17;17.40;;;;;;;;;;5071633;28;20446;-58
2021/12/07 07:35:39;;;;;;;26.30;18.00;;;;;;;;;;5071785;28;20654;-58
2021/12/07 07:38:07;;;;;;;25.93;17.57;;;;;;;;;;5071575;28;20196;-58
2021/12/07 07:40:33;;;;;;;23.80;17.47;;;;;;;;;;5071616;28;20899;-58
2021/12/07 07:42:59;;;;;;;25.10;17.27;;;;;;;;;;5071615;28;20442;-58
2021/12/07 07:45:25;;;;;;;25.30;18.03;;;;;;;;;;5071539;28;20426;-58
2021/12/07 07:47:51;;;;;;;32.40;19.37;;;;;;;;;;5071521;28;20231;-58
2021/12/07 07:50:18;;;;;;;24.47;17.17;;;;;;;;;;5071616;28;20480;-58
2021/12/07 07:52:44;;;;;;;24.47;16.87;;;;;;;;;;5071566;28;20426;-58
2021/12/07 07:55:14;;;;;;;26.83;16.97;;;;;;;;;;5071584;28;20433;-58
2021/12/07 07:57:40;;;;;;;26.17;17.80;;;;;;;;;;5071123;28;20908;-58
2021/12/07 08:00:08;;;;;;;22.87;17.07;;;;;;;;;;5071007;28;20811;-58
2021/12/07 08:02:34;;;;;;;24.70;16.87;;;;;;;;;;5071250;28;20499;-58
2021/12/07 08:05:00;;;;;;;27.33;18.67;;;;;;;;;;5071035;28;20456;-58
2021/12/07 08:07:26;;;;;;;24.37;17.20;;;;;;;;;;5070833;28;20496;-58
2021/12/07 08:09:52;;;;;;;22.93;16.90;;;;;;;;;;5071153;28;20851;-58
2021/12/07 08:12:20;;;;;;;23.03;16.47;;;;;;;;;;5071103;28;20202;-58
2021/12/07 08:14:46;;;;;;;23.23;16.17;;;;;;;;;;5071122;28;20434;-58
2021/12/07 08:17:12;;;;;;;23.30;16.03;;;;;;;;;;5070834;28;20541;-59
2021/12/07 08:19:38;;;;;;;21.83;16.20;;;;;;;;;;5071160;28;21295;-58
2021/12/07 08:22:04;;;;;;;20.60;15.37;;;;;;;;;;5071050;28;20291;-58
2021/12/07 08:24:30;;;;;;;21.37;15.67;;;;;;;;;;5071072;28;20422;-59
2021/12/07 08:26:56;;;;;;;22.13;16.20;;;;;;;;;;5070616;28;20924;-60
2021/12/07 08:29:23;;;;;;;20.37;15.20;;;;;;;;;;5072268;28;20659;-59
2021/12/07 08:31:49;;;;;;;20.77;15.77;;;;;;;;;;5074497;28;20804;-60
2021/12/07 08:34:15;;;;;;;19.63;15.00;;;;;;;;;;5074692;28;20434;-59
2021/12/07 08:36:41;;;;;;;19.20;15.23;;;;;;;;;;5074590;28;20199;-60
2021/12/07 08:39:08;;;;;;;19.60;14.87;;;;;;;;;;5074518;28;20210;-60
2021/12/07 08:41:34;;;;;;;20.37;15.10;;;;;;;;;;5074146;28;20434;-60
2021/12/07 08:44:00;;;;;;;20.90;14.83;;;;;;;;;;5074222;28;20495;-60
2021/12/07 08:46:28;;;;;;;17.50;14.73;;;;;;;;;;5074208;28;20434;-56
2021/12/07 08:48:54;;;;;;;17.70;13.90;;;;;;;;;;5074261;28;20227;-60
2021/12/07 08:51:20;;;;;;;19.43;14.77;;;;;;;;;;5074110;28;21005;-57
2021/12/07 08:53:53;;;;;;;19.80;14.30;;;;;;;;;;5074348;28;20218;-58
2021/12/07 09:01:52;;;;;;;17.43;13.53;;;;;;;;;;5073941;28;20499;-58
2021/12/07 09:04:20;;;;;;;17.17;14.23;;;;;;;;;;5073921;28;20524;-57
2021/12/07 09:06:46;;;;;;;17.40;14.13;;;;;;;;;;5074139;28;20434;-58
2021/12/07 09:09:12;;;;;;;16.20;14.00;;;;;;;;;;5073913;28;20485;-58
2021/12/07 09:11:38;;;;;;;18.83;15.30;;;;;;;;;;5073924;28;20441;-58
2021/12/07 09:14:04;;;;;;;16.07;13.80;;;;;;;;;;5073832;28;20932;-58
2021/12/07 09:16:30;;;;;;;17.80;14.70;;;;;;;;;;5073821;28;20430;-58
2021/12/07 09:18:58;;;;;;;15.53;13.60;;;;;;;;;;5073870;28;20439;-58
2021/12/07 09:21:24;;;;;;;17.13;14.10;;;;;;;;;;5073732;28;20224;-59
2021/12/07 09:23:50;;;;;;;17.93;14.10;;;;;;;;;;5073745;28;20776;-58
2021/12/07 09:26:16;;;;;;;19.87;14.07;;;;;;;;;;5073780;28;20483;-58
2021/12/07 09:28:44;;;;;;;17.07;14.07;;;;;;;;;;5073514;28;20478;-58
2021/12/07 09:31:10;;;;;;;14.73;12.77;;;;;;;;;;5073484;28;20784;-58
2021/12/07 09:33:37;;;;;;;16.47;14.13;;;;;;;;;;5073497;28;20453;-58
2021/12/07 09:36:06;;;;;;;14.93;13.40;;;;;;;;;;5073866;28;20195;-58
2021/12/07 09:38:32;;;;;;;18.33;14.43;;;;;;;;;;5073494;28;20827;-58
2021/12/07 09:40:58;;;;;;;16.53;13.87;;;;;;;;;;5072492;28;20476;-58
2021/12/07 09:43:24;;;;;;;15.97;13.97;;;;;;;;;;5073014;28;20207;-57
2021/12/07 09:45:50;;;;;;;17.07;15.00;;;;;;;;;;5073271;28;20531;-56
2021/12/07 09:48:16;;;;;;;17.73;14.70;;;;;;;;;;5073085;28;20470;-57
2021/12/07 09:50:44;;;;;;;18.07;14.53;;;;;;;;;;5073439;28;20941;-58
2021/12/07 09:53:13;;;;;;;17.80;14.63;;;;;;;;;;5073220;28;20438;-57
2021/12/07 09:55:39;;;;;;;17.87;14.43;;;;;;;;;;5073176;28;20445;-58
2021/12/07 09:58:06;;;;;;;16.30;14.60;;;;;;;;;;5072871;28;20931;-58
2021/12/07 10:00:34;;;;;;;19.43;14.67;;;;;;;;;;5072760;28;20493;-58
2021/12/07 10:03:00;;;;;;;15.87;14.20;;;;;;;;;;5072771;28;20440;-57
2021/12/07 10:05:27;;;;;;;17.07;15.03;;;;;;;;;;5072600;28;20469;-59
2021/12/07 10:07:53;;;;;;;17.40;14.60;;;;;;;;;;5072957;28;20534;-58
2021/12/07 10:10:22;;;;;;;18.90;15.60;;;;;;;;;;5072866;28;20932;-58
2021/12/07 10:12:49;;;;;;;17.17;14.73;;;;;;;;;;5072725;28;20442;-58
2021/12/07 10:15:15;;;;;;;16.77;14.87;;;;;;;;;;5072676;28;20433;-57
2021/12/07 10:17:42;;;;;;;16.73;14.93;;;;;;;;;;5072656;28;20434;-59
2021/12/07 10:20:22;;;;;;;18.57;15.53;;;;;;;;;;5072677;28;20522;-58
2021/12/07 10:22:51;;;;;;;18.13;15.27;;;;;;;;;;5072763;28;20448;-58
2021/12/07 10:25:26;;;;;;;16.77;14.60;;;;;;;;;;5072578;28;20426;-57
2021/12/07 10:27:52;;;;;;;18.73;15.67;;;;;;;;;;5072415;28;20624;-57
2021/12/07 10:30:20;;;;;;;17.73;15.43;;;;;;;;;;5072358;28;20964;-57
2021/12/07 10:32:56;;;;;;;17.40;15.13;;;;;;;;;;5072421;28;20438;-57
2021/12/07 10:35:26;;;;;;;17.37;15.27;;;;;;;;;;5072350;28;20943;-57
2021/12/07 10:38:06;;;;;;;18.80;15.87;;;;;;;;;;5070617;28;20430;-57
2021/12/07 10:40:33;;;;;;;18.10;15.10;;;;;;;;;;5072599;28;20441;-57
2021/12/07 10:43:00;;;;;;;18.27;14.97;;;;;;;;;;5072236;28;20446;-57
2021/12/07 10:45:28;;;;;;;18.67;14.77;;;;;;;;;;5072080;28;20480;-57
2021/12/07 10:47:54;;;;;;;18.70;15.50;;;;;;;;;;5072135;28;20470;-58
2021/12/07 10:50:20;;;;;;;18.10;15.77;;;;;;;;;;5071983;28;20912;-58
2021/12/07 10:52:46;;;;;;;21.20;17.67;;;;;;;;;;5072131;28;20537;-59
2021/12/07 10:55:15;;;;;;;18.97;15.40;;;;;;;;;;5071960;28;20479;-58
2021/12/07 10:57:44;;;;;;;19.93;14.93;;;;;;;;;;5072185;28;20440;-59
2021/12/07 11:00:12;;;;;;;18.87;14.80;;;;;;;;;;5071860;28;21000;-57
2021/12/07 11:02:39;;;;;;;18.80;14.60;;;;;;;;;;5071965;28;20442;-57
2021/12/07 11:05:07;;;;;;;19.87;15.03;;;;;;;;;;5071877;28;20454;-58
2021/12/07 11:07:34;;;;;;;20.10;15.13;;;;;;;;;;5071783;28;20446;-58
2021/12/07 11:12:38;;;;;;;21.27;15.60;;;;;;;;;;5071778;28;20485;-58
2021/12/07 11:15:13;;;;;;;20.50;14.80;;;;;;;;;;5072016;28;20442;-58
2021/12/07 11:17:43;;;;;;;18.50;14.53;;;;;;;;;;5071826;28;20523;-58
2021/12/07 11:20:10;;;;;;;21.13;14.60;;;;;;;;;;5071566;28;20503;-58
2021/12/07 11:22:37;;;;;;;20.83;15.03;;;;;;;;;;5071727;28;20557;-58
2021/12/07 11:25:05;;;;;;;18.43;14.60;;;;;;;;;;5071574;28;20769;-58
2021/12/07 11:30:19;;;;;;;21.87;16.57;;;;;;;;;;5071843;28;20522;-58
2021/12/07 11:32:47;;;;;;;20.77;15.23;;;;;;;;;;5071760;28;20434;-59
2021/12/07 11:35:17;;;;;;;18.80;14.83;;;;;;;;;;5071734;28;20422;-58
2021/12/07 11:37:43;;;;;;;17.47;15.10;;;;;;;;;;5071797;28;20484;-57
2021/12/07 11:40:10;;;;;;;20.73;15.03;;;;;;;;;;5071469;28;20800;-58
2021/12/07 11:42:38;;;;;;;22.70;15.33;;;;;;;;;;5071460;28;20916;-58
2021/12/07 11:45:07;;;;;;;21.17;15.17;;;;;;;;;;5071439;28;20434;-57
2021/12/07 11:47:35;;;;;;;16.70;14.43;;;;;;;;;;5071496;28;20442;-59
2021/12/07 11:50:03;;;;;;;21.03;16.20;;;;;;;;;;5071683;28;20477;-58
2021/12/07 11:52:29;;;;;;;23.30;15.53;;;;;;;;;;5071440;28;20449;-59
2021/12/07 11:54:55;;;;;;;20.63;15.07;;;;;;;;;;5071528;28;20461;-59
2021/12/07 11:57:21;;;;;;;18.70;14.40;;;;;;;;;;5071255;28;20939;-59
2021/12/07 11:59:48;;;;;;;21.73;15.73;;;;;;;;;;5071209;28;20834;-58
2021/12/07 12:02:15;;;;;;;20.77;14.83;;;;;;;;;;5065218;28;20429;-58
2021/12/07 12:04:43;;;;;;;22.13;16.30;;;;;;;;;;5073497;28;20453;-58
2021/12/07 12:07:09;;;;;;;19.83;15.83;;;;;;;;;;5075479;28;20495;-58
2021/12/07 12:09:37;;;;;;;22.60;15.90;;;;;;;;;;5075393;28;20477;-59
2021/12/07 12:12:10;;;;;;;23.50;15.30;;;;;;;;;;5075218;28;20425;-57
2021/12/07 12:14:45;;;;;;;21.50;15.80;;;;;;;;;;5075199;28;20446;-58
2021/12/07 12:17:14;;;;;;;18.80;14.87;;;;;;;;;;5075061;28;20977;-59
2021/12/07 12:19:50;;;;;;;22.17;14.67;;;;;;;;;;5075164;28;20549;-58
2021/12/07 12:22:17;;;;;;;20.37;14.43;;;;;;;;;;5075054;28;20525;-59
2021/12/07 12:24:48;;;;;;;26.13;14.63;;;;;;;;;;5075180;28;20438;-58
2021/12/07 12:27:15;;;;;;;26.63;17.23;;;;;;;;;;5074729;28;20433;-59
2021/12/07 12:29:42;;;;;;;20.10;14.93;;;;;;;;;;5074877;28;20482;-59
2021/12/07 12:32:09;;;;;;;22.27;16.37;;;;;;;;;;5075105;28;20839;-62
2021/12/07 12:34:36;;;;;;;19.60;14.87;;;;;;;;;;5074827;28;20932;-59
2021/12/07 12:37:06;;;;;;;22.83;16.00;;;;;;;;;;5074982;28;20932;-59
2021/12/07 12:39:47;;;;;;;22.07;14.37;;;;;;;;;;5074520;28;20438;-59
2021/12/07 12:42:15;;;;;;;22.20;14.47;;;;;;;;;;5072310;28;20809;-59
2021/12/07 12:44:42;;;;;;;19.57;14.27;;;;;;;;;;5074729;28;20487;-57
2021/12/07 12:47:08;;;;;;;20.97;14.93;;;;;;;;;;5074853;28;20434;-58
2021/12/07 12:49:37;;;;;;;22.93;15.97;;;;;;;;;;5074466;28;20481;-58
2021/12/07 12:52:05;;;;;;;23.80;14.67;;;;;;;;;;5074746;28;20432;-58
2021/12/07 12:54:38;;;;;;;19.53;14.77;;;;;;;;;;5074552;28;20952;-58
2021/12/07 12:57:08;;;;;;;18.57;14.57;;;;;;;;;;5074417;28;20437;-57
2021/12/07 12:59:37;;;;;;;22.73;15.50;;;;;;;;;;5074325;28;20461;-57
2021/12/07 13:02:03;;;;;;;21.70;15.00;;;;;;;;;;5074421;28;20438;-58
2021/12/07 13:04:30;;;;;;;20.50;15.20;;;;;;;;;;5074146;28;20434;-58
2021/12/07 13:07:03;;;;;;;19.67;14.17;;;;;;;;;;5074194;28;20434;-58
2021/12/07 13:09:38;;;;;;;21.03;15.10;;;;;;;;;;5074144;28;20523;-58
2021/12/07 13:12:05;;;;;;;20.37;15.13;;;;;;;;;;5074056;28;20495;-58
2021/12/07 13:14:43;;;;;;;20.03;14.97;;;;;;;;;;5056009;28;20462;-58
2021/12/07 13:17:16;;;;;;;19.63;14.20;;;;;;;;;;5073261;28;20491;-60
2021/12/07 13:19:56;;;;;;;22.67;15.17;;;;;;;;;;5074334;28;20804;-58
2021/12/07 13:22:22;;;;;;;23.27;15.73;;;;;;;;;;5073474;28;20979;-59
2021/12/07 13:24:56;;;;;;;23.30;14.60;;;;;;;;;;5074108;28;20444;-60
2021/12/07 13:27:22;;;;;;;25.63;13.77;;;;;;;;;;5073987;28;20529;-59
2021/12/07 13:29:53;;;;;;;20.90;13.80;;;;;;;;;;5073930;28;20486;-58
2021/12/07 13:32:19;;;;;;;20.97;14.60;;;;;;;;;;5073589;28;20529;-58
2021/12/07 13:34:46;;;;;;;22.03;14.30;;;;;;;;;;5073833;28;20543;-59
2021/12/07 13:37:12;;;;;;;21.43;14.70;;;;;;;;;;5073646;28;20429;-59
2021/12/07 13:39:40;;;;;;;20.83;13.63;;;;;;;;;;5073552;28;20495;-59
2021/12/07 13:42:09;;;;;;;21.63;13.40;;;;;;;;;;5073534;28;20469;-59
2021/12/07 13:44:37;;;;;;;22.90;14.67;;;;;;;;;;5073296;28;20528;-60
2021/12/07 13:47:05;;;;;;;21.17;13.60;;;;;;;;;;5073541;28;20434;-59
2021/12/07 13:49:32;;;;;;;20.90;14.53;;;;;;;;;;5073470;28;20473;-58
2021/12/07 13:51:58;;;;;;;19.90;13.43;;;;;;;;;;5073158;28;20437;-58
2021/12/07 13:54:24;;;;;;;23.20;14.40;;;;;;;;;;5073055;28;20441;-58
2021/12/07 13:56:51;;;;;;;20.63;13.57;;;;;;;;;;5073012;28;20438;-57
2021/12/07 13:59:21;;;;;;;20.77;13.60;;;;;;;;;;5073165;28;20422;-58
2021/12/07 14:01:49;;;;;;;17.87;12.80;;;;;;;;;;5072978;28;20902;-58
2021/12/07 14:04:15;;;;;;;21.73;13.30;;;;;;;;;;5073235;28;20440;-59
2021/12/07 14:06:45;;;;;;;18.90;13.77;;;;;;;;;;5073122;28;20426;-58
2021/12/07 14:09:11;;;;;;;18.50;13.63;;;;;;;;;;5072902;28;20474;-58
2021/12/07 14:11:38;;;;;;;19.80;13.33;;;;;;;;;;5072849;28;20444;-59
2021/12/07 14:14:08;;;;;;;15.67;11.77;;;;;;;;;;5072975;28;20257;-59
2021/12/07 14:16:42;;;;;;;20.73;13.77;;;;;;;;;;5072795;28;20418;-59
2021/12/07 14:19:08;;;;;;;21.30;13.07;;;;;;;;;;5072778;28;20936;-59
2021/12/07 14:21:34;;;;;;;23.27;13.97;;;;;;;;;;5072679;28;20433;-59
2021/12/07 14:24:07;;;;;;;16.83;13.23;;;;;;;;;;5072935;28;20928;-59
2021/12/07 14:26:36;;;;;;;20.20;13.63;;;;;;;;;;5072182;28;20572;-59
2021/12/07 14:29:04;;;;;;;18.00;13.23;;;;;;;;;;5072477;28;20478;-59
2021/12/07 14:31:34;;;;;;;22.17;13.80;;;;;;;;;;5072719;28;20445;-60
2021/12/07 14:34:04;;;;;;;21.07;14.20;;;;;;;;;;5072715;28;20453;-59
2021/12/07 14:36:33;;;;;;;23.87;13.70;;;;;;;;;;5072290;28;20442;-58
2021/12/07 14:39:01;;;;;;;22.40;14.27;;;;;;;;;;5072869;28;20583;-60
2021/12/07 14:41:28;;;;;;;18.87;13.30;;;;;;;;;;5072091;28;20493;-59
2021/12/07 14:43:54;;;;;;;21.47;13.17;;;;;;;;;;5072334;28;20442;-58
2021/12/07 14:46:21;;;;;;;17.00;12.70;;;;;;;;;;5070952;28;20513;-59
2021/12/07 14:48:48;;;;;;;21.87;13.13;;;;;;;;;;5072050;28;20481;-59
2021/12/07 14:51:16;;;;;;;26.10;13.13;;;;;;;;;;5072219;28;20477;-60
2021/12/07 14:53:45;;;;;;;21.37;14.93;;;;;;;;;;5072419;28;20524;-59
2021/12/07 14:56:12;;;;;;;23.00;13.33;;;;;;;;;;5072121;28;20479;-59
2021/12/07 14:58:38;;;;;;;20.70;13.17;;;;;;;;;;5071914;28;20478;-59
2021/12/07 15:01:05;;;;;;;23.03;14.10;;;;;;;;;;5071984;28;21007;-60
2021/12/07 15:03:39;;;;;;;22.00;13.80;;;;;;;;;;5072078;28;20542;-59
2021/12/07 15:06:08;;;;;;;21.17;13.73;;;;;;;;;;5070882;28;20475;-58
2021/12/07 15:08:36;;;;;;;21.37;12.67;;;;;;;;;;5070673;28;20473;-58
2021/12/07 15:11:02;;;;;;;20.57;14.00;;;;;;;;;;5071410;28;20453;-59
2021/12/07 15:13:29;;;;;;;23.00;14.13;;;;;;;;;;5071993;28;20500;-59
2021/12/07 15:15:57;;;;;;;23.73;13.87;;;;;;;;;;5072256;28;20438;-60
2021/12/07 15:18:27;;;;;;;20.27;14.50;;;;;;;;;;5071921;28;20434;-60
2021/12/07 15:20:53;;;;;;;21.10;14.60;;;;;;;;;;5072031;28;20426;-60
2021/12/07 15:23:19;;;;;;;25.13;15.43;;;;;;;;;;5071954;28;20485;-58
2021/12/07 15:25:50;;;;;;;25.40;14.77;;;;;;;;;;5072113;28;20426;-59
2021/12/07 15:28:16;;;;;;;24.80;14.90;;;;;;;;;;5071998;28;20483;-59
2021/12/07 15:30:42;;;;;;;18.87;14.63;;;;;;;;;;5071830;28;20942;-59
2021/12/07 15:33:08;;;;;;;20.13;14.90;;;;;;;;;;5072059;28;20529;-59
2021/12/07 15:35:34;;;;;;;26.20;14.87;;;;;;;;;;5071720;28;20506;-59
2021/12/07 15:38:00;;;;;;;24.47;15.80;;;;;;;;;;5071333;28;20438;-59
2021/12/07 15:40:26;;;;;;;26.17;16.30;;;;;;;;;;5071345;28;20426;-59
2021/12/07 15:42:54;;;;;;;23.60;15.63;;;;;;;;;;5071568;28;20437;-59
2021/12/07 15:45:20;;;;;;;24.60;17.03;;;;;;;;;;5071546;28;20436;-60
2021/12/07 15:47:48;;;;;;;22.50;15.20;;;;;;;;;;5071314;28;20528;-59
2021/12/07 15:50:16;;;;;;;24.33;16.43;;;;;;;;;;5071422;28;21009;-59
2021/12/07 15:52:43;;;;;;;24.67;16.30;;;;;;;;;;5071524;28;20540;-60
2021/12/07 15:55:11;;;;;;;23.97;16.10;;;;;;;;;;5071524;28;20502;-58
2021/12/07 15:57:41;;;;;;;25.47;16.80;;;;;;;;;;5071298;28;20434;-60
2021/12/07 16:00:10;;;;;;;24.93;16.20;;;;;;;;;;5071119;28;20472;-60